sensor_id;sensor_type;location;lat;lon;timestamp;pressure;altitude;pressure_sealevel;temperature
70819;BMP280;58439;51.046;13.692;2023-02-28T00:01:46;101351.31;;;0.66
70819;BMP280;58439;51.046;13.692;2023-02-28T00:04:51;101348.75;;;0.66
70819;BMP280;58439;51.046;13.692;2023-02-28T00:08:21;101352.78;;;0.70
70819;BMP280;58439;51.046;13.692;2023-02-28T00:10:49;101348.47;;;0.70
70819;BMP280;58439;51.046;13.692;2023-02-28T00:14:01;101349.66;;;0.65
70819;BMP280;58439;51.046;13.692;2023-02-28T00:16:29;101342.28;;;0.59
70819;BMP280;58439;51.046;13.692;2023-02-28T00:18:56;101348.34;;;0.58
70819;BMP280;58439;51.046;13.692;2023-02-28T00:21:23;101345.22;;;0.53
70819;BMP280;58439;51.046;13.692;2023-02-28T00:23:51;101341.19;;;0.48
70819;BMP280;58439;51.046;13.692;2023-02-28T00:26:18;101343.75;;;0.48
70819;BMP280;58439;51.046;13.692;2023-02-28T00:28:48;101343.91;;;0.45
70819;BMP280;58439;51.046;13.692;2023-02-28T00:31:16;101332.69;;;0.46
70819;BMP280;58439;51.046;13.692;2023-02-28T00:33:43;101329.31;;;0.46
70819;BMP280;58439;51.046;13.692;2023-02-28T00:36:11;101342.28;;;0.44
70819;BMP280;58439;51.046;13.692;2023-02-28T00:38:40;101344.03;;;0.44
70819;BMP280;58439;51.046;13.692;2023-02-28T00:41:08;101342.34;;;0.43
70819;BMP280;58439;51.046;13.692;2023-02-28T00:43:38;101339.69;;;0.44
70819;BMP280;58439;51.046;13.692;2023-02-28T00:46:07;101341.69;;;0.39
70819;BMP280;58439;51.046;13.692;2023-02-28T00:48:35;101341.13;;;0.34
70819;BMP280;58439;51.046;13.692;2023-02-28T00:51:04;101338.75;;;0.31
70819;BMP280;58439;51.046;13.692;2023-02-28T00:53:32;101339.78;;;0.29
70819;BMP280;58439;51.046;13.692;2023-02-28T00:55:59;101341.75;;;0.23
70819;BMP280;58439;51.046;13.692;2023-02-28T00:58:27;101337.63;;;0.21
70819;BMP280;58439;51.046;13.692;2023-02-28T01:00:55;101336.72;;;0.22
70819;BMP280;58439;51.046;13.692;2023-02-28T01:03:22;101333.22;;;0.23
70819;BMP280;58439;51.046;13.692;2023-02-28T01:05:50;101332.22;;;0.26
70819;BMP280;58439;51.046;13.692;2023-02-28T01:08:17;101334.69;;;0.27
70819;BMP280;58439;51.046;13.692;2023-02-28T01:10:44;101335.53;;;0.28
70819;BMP280;58439;51.046;13.692;2023-02-28T01:17:51;101335.47;;;0.29
70819;BMP280;58439;51.046;13.692;2023-02-28T01:20:18;101335.28;;;0.32
70819;BMP280;58439;51.046;13.692;2023-02-28T01:22:47;101332.72;;;0.32
70819;BMP280;58439;51.046;13.692;2023-02-28T01:25:14;101339.47;;;0.33
70819;BMP280;58439;51.046;13.692;2023-02-28T01:27:42;101326.50;;;0.35
70819;BMP280;58439;51.046;13.692;2023-02-28T01:30:10;101327.34;;;0.35
70819;BMP280;58439;51.046;13.692;2023-02-28T01:32:37;101333.13;;;0.39
70819;BMP280;58439;51.046;13.692;2023-02-28T01:35:05;101328.81;;;0.39
70819;BMP280;58439;51.046;13.692;2023-02-28T01:37:33;101328.81;;;0.39
70819;BMP280;58439;51.046;13.692;2023-02-28T01:40:00;101319.53;;;0.37
70819;BMP280;58439;51.046;13.692;2023-02-28T01:42:28;101332.41;;;0.37
70819;BMP280;58439;51.046;13.692;2023-02-28T01:45:30;101328.19;;;0.36
70819;BMP280;58439;51.046;13.692;2023-02-28T01:48:07;101322.41;;;0.32
70819;BMP280;58439;51.046;13.692;2023-02-28T01:50:41;101323.50;;;0.28
70819;BMP280;58439;51.046;13.692;2023-02-28T01:53:15;101316.78;;;0.26
70819;BMP280;58439;51.046;13.692;2023-02-28T01:55:47;101321.28;;;0.22
70819;BMP280;58439;51.046;13.692;2023-02-28T01:58:16;101324.00;;;0.19
70819;BMP280;58439;51.046;13.692;2023-02-28T02:00:44;101323.28;;;0.17
70819;BMP280;58439;51.046;13.692;2023-02-28T02:03:14;101319.13;;;0.14
70819;BMP280;58439;51.046;13.692;2023-02-28T02:05:46;101321.06;;;0.11
70819;BMP280;58439;51.046;13.692;2023-02-28T02:08:26;101316.06;;;0.08
70819;BMP280;58439;51.046;13.692;2023-02-28T02:11:01;101311.03;;;0.06
70819;BMP280;58439;51.046;13.692;2023-02-28T02:13:58;101315.34;;;0.06
70819;BMP280;58439;51.046;13.692;2023-02-28T02:17:18;101318.09;;;0.03
70819;BMP280;58439;51.046;13.692;2023-02-28T02:20:11;101315.34;;;0.06
70819;BMP280;58439;51.046;13.692;2023-02-28T02:23:18;101317.00;;;0.07
70819;BMP280;58439;51.046;13.692;2023-02-28T02:38:24;101304.91;;;0.09
70819;BMP280;58439;51.046;13.692;2023-02-28T02:44:49;101305.06;;;0.06
70819;BMP280;58439;51.046;13.692;2023-02-28T02:47:24;101310.19;;;0.06
70819;BMP280;58439;51.046;13.692;2023-02-28T02:49:57;101313.50;;;0.08
70819;BMP280;58439;51.046;13.692;2023-02-28T02:52:47;101312.59;;;0.09
70819;BMP280;58439;51.046;13.692;2023-02-28T02:55:21;101306.72;;;0.07
70819;BMP280;58439;51.046;13.692;2023-02-28T02:58:01;101313.59;;;0.06
70819;BMP280;58439;51.046;13.692;2023-02-28T03:00:37;101320.75;;;0.01
70819;BMP280;58439;51.046;13.692;2023-02-28T03:03:08;101315.69;;;-0.01
70819;BMP280;58439;51.046;13.692;2023-02-28T03:09:37;101321.75;;;-0.02
70819;BMP280;58439;51.046;13.692;2023-02-28T03:12:11;101322.81;;;-0.06
70819;BMP280;58439;51.046;13.692;2023-02-28T03:21:06;101310.75;;;-0.19
70819;BMP280;58439;51.046;13.692;2023-02-28T03:24:43;101316.97;;;-0.23
70819;BMP280;58439;51.046;13.692;2023-02-28T03:30:04;101312.38;;;-0.34
70819;BMP280;58439;51.046;13.692;2023-02-28T03:35:23;101305.25;;;-0.45
70819;BMP280;58439;51.046;13.692;2023-02-28T03:38:02;101301.53;;;-0.55
70819;BMP280;58439;51.046;13.692;2023-02-28T03:40:35;101312.03;;;-0.60
70819;BMP280;58439;51.046;13.692;2023-02-28T03:43:12;101307.81;;;-0.61
70819;BMP280;58439;51.046;13.692;2023-02-28T03:45:43;101310.72;;;-0.67
70819;BMP280;58439;51.046;13.692;2023-02-28T03:48:27;101305.34;;;-0.78
70819;BMP280;58439;51.046;13.692;2023-02-28T03:51:00;101304.91;;;-0.86
70819;BMP280;58439;51.046;13.692;2023-02-28T03:53:35;101316.25;;;-0.90
70819;BMP280;58439;51.046;13.692;2023-02-28T03:56:45;101321.63;;;-0.95
70819;BMP280;58439;51.046;13.692;2023-02-28T03:59:28;101318.03;;;-1.08
70819;BMP280;58439;51.046;13.692;2023-02-28T04:01:57;101321.81;;;-1.15
70819;BMP280;58439;51.046;13.692;2023-02-28T04:04:25;101320.16;;;-1.16
70819;BMP280;58439;51.046;13.692;2023-02-28T04:07:01;101312.56;;;-1.18
70819;BMP280;58439;51.046;13.692;2023-02-28T04:09:28;101326.88;;;-1.14
70819;BMP280;58439;51.046;13.692;2023-02-28T04:11:56;101332.03;;;-1.14
70819;BMP280;58439;51.046;13.692;2023-02-28T04:14:24;101330.50;;;-1.18
70819;BMP280;58439;51.046;13.692;2023-02-28T04:16:51;101331.50;;;-1.20
70819;BMP280;58439;51.046;13.692;2023-02-28T04:19:19;101327.41;;;-1.25
70819;BMP280;58439;51.046;13.692;2023-02-28T04:21:53;101332.78;;;-1.29
70819;BMP280;58439;51.046;13.692;2023-02-28T04:24:25;101338.84;;;-1.30
70819;BMP280;58439;51.046;13.692;2023-02-28T04:26:55;101344.13;;;-1.33
70819;BMP280;58439;51.046;13.692;2023-02-28T04:29:30;101341.75;;;-1.38
70819;BMP280;58439;51.046;13.692;2023-02-28T04:32:00;101341.13;;;-1.43
70819;BMP280;58439;51.046;13.692;2023-02-28T04:34:31;101343.09;;;-1.48
70819;BMP280;58439;51.046;13.692;2023-02-28T04:36:58;101350.25;;;-1.55
70819;BMP280;58439;51.046;13.692;2023-02-28T04:39:43;101342.88;;;-1.61
70819;BMP280;58439;51.046;13.692;2023-02-28T04:42:12;101346.78;;;-1.71
70819;BMP280;58439;51.046;13.692;2023-02-28T04:44:40;101348.69;;;-1.75
70819;BMP280;58439;51.046;13.692;2023-02-28T04:47:08;101348.75;;;-1.76
70819;BMP280;58439;51.046;13.692;2023-02-28T04:49:35;101344.69;;;-1.80
70819;BMP280;58439;51.046;13.692;2023-02-28T04:52:02;101339.97;;;-1.89
70819;BMP280;58439;51.046;13.692;2023-02-28T04:54:30;101346.16;;;-1.93
70819;BMP280;58439;51.046;13.692;2023-02-28T04:56:57;101350.66;;;-1.99
70819;BMP280;58439;51.046;13.692;2023-02-28T04:59:25;101349.00;;;-2.00
70819;BMP280;58439;51.046;13.692;2023-02-28T05:01:55;101345.81;;;-2.05
70819;BMP280;58439;51.046;13.692;2023-02-28T05:04:22;101348.53;;;-2.08
70819;BMP280;58439;51.046;13.692;2023-02-28T05:06:52;101352.97;;;-2.11
70819;BMP280;58439;51.046;13.692;2023-02-28T05:09:19;101349.56;;;-2.12
70819;BMP280;58439;51.046;13.692;2023-02-28T05:11:47;101350.47;;;-2.13
70819;BMP280;58439;51.046;13.692;2023-02-28T05:14:15;101357.41;;;-2.15
70819;BMP280;58439;51.046;13.692;2023-02-28T05:16:43;101354.97;;;-2.18
70819;BMP280;58439;51.046;13.692;2023-02-28T05:19:10;101355.13;;;-2.21
70819;BMP280;58439;51.046;13.692;2023-02-28T05:21:49;101357.84;;;-2.24
70819;BMP280;58439;51.046;13.692;2023-02-28T05:24:18;101358.94;;;-2.30
70819;BMP280;58439;51.046;13.692;2023-02-28T05:26:54;101361.75;;;-2.36
70819;BMP280;58439;51.046;13.692;2023-02-28T05:29:22;101365.28;;;-2.38
70819;BMP280;58439;51.046;13.692;2023-02-28T05:31:49;101361.88;;;-2.39
70819;BMP280;58439;51.046;13.692;2023-02-28T05:34:17;101359.47;;;-2.42
70819;BMP280;58439;51.046;13.692;2023-02-28T05:36:44;101367.22;;;-2.44
70819;BMP280;58439;51.046;13.692;2023-02-28T05:39:11;101358.63;;;-2.42
70819;BMP280;58439;51.046;13.692;2023-02-28T05:41:42;101360.50;;;-2.46
70819;BMP280;58439;51.046;13.692;2023-02-28T05:44:10;101366.41;;;-2.44
70819;BMP280;58439;51.046;13.692;2023-02-28T05:46:39;101363.88;;;-2.46
70819;BMP280;58439;51.046;13.692;2023-02-28T05:49:06;101365.69;;;-2.48
70819;BMP280;58439;51.046;13.692;2023-02-28T05:51:33;101364.25;;;-2.53
70819;BMP280;58439;51.046;13.692;2023-02-28T05:54:03;101369.44;;;-2.55
70819;BMP280;58439;51.046;13.692;2023-02-28T05:56:30;101369.50;;;-2.56
70819;BMP280;58439;51.046;13.692;2023-02-28T05:58:58;101378.59;;;-2.49
70819;BMP280;58439;51.046;13.692;2023-02-28T06:01:42;101374.13;;;-2.46
70819;BMP280;58439;51.046;13.692;2023-02-28T06:04:32;101376.03;;;-2.49
70819;BMP280;58439;51.046;13.692;2023-02-28T06:07:35;101379.56;;;-2.52
70819;BMP280;58439;51.046;13.692;2023-02-28T06:10:02;101376.03;;;-2.49
70819;BMP280;58439;51.046;13.692;2023-02-28T06:12:30;101388.75;;;-2.48
70819;BMP280;58439;51.046;13.692;2023-02-28T06:14:57;101386.94;;;-2.46
70819;BMP280;58439;51.046;13.692;2023-02-28T06:17:24;101384.19;;;-2.41
70819;BMP280;58439;51.046;13.692;2023-02-28T06:19:52;101389.66;;;-2.30
70819;BMP280;58439;51.046;13.692;2023-02-28T06:22:22;101393.97;;;-2.30
70819;BMP280;58439;51.046;13.692;2023-02-28T06:24:49;101395.75;;;-2.32
70819;BMP280;58439;51.046;13.692;2023-02-28T06:27:19;101404.22;;;-2.30
70819;BMP280;58439;51.046;13.692;2023-02-28T06:29:47;101398.84;;;-2.24
70819;BMP280;58439;51.046;13.692;2023-02-28T06:32:14;101399.44;;;-2.19
70819;BMP280;58439;51.046;13.692;2023-02-28T06:34:45;101405.25;;;-2.15
70819;BMP280;58439;51.046;13.692;2023-02-28T06:37:14;101404.44;;;-2.16
70819;BMP280;58439;51.046;13.692;2023-02-28T06:39:42;101422.28;;;-2.14
70819;BMP280;58439;51.046;13.692;2023-02-28T06:46:04;101426.47;;;-2.12
70819;BMP280;58439;51.046;13.692;2023-02-28T06:48:32;101427.59;;;-2.17
70819;BMP280;58439;51.046;13.692;2023-02-28T06:51:09;101432.63;;;-2.16
70819;BMP280;58439;51.046;13.692;2023-02-28T06:53:37;101434.34;;;-2.16
70819;BMP280;58439;51.046;13.692;2023-02-28T06:56:30;101434.16;;;-2.12
70819;BMP280;58439;51.046;13.692;2023-02-28T06:59:10;101438.38;;;-2.11
70819;BMP280;58439;51.046;13.692;2023-02-28T07:02:30;101443.44;;;-2.09
70819;BMP280;58439;51.046;13.692;2023-02-28T07:04:58;101445.56;;;-2.00
70819;BMP280;58439;51.046;13.692;2023-02-28T07:07:25;101448.06;;;-1.80
70819;BMP280;58439;51.046;13.692;2023-02-28T07:09:53;101448.38;;;-1.50
70819;BMP280;58439;51.046;13.692;2023-02-28T07:12:20;101452.94;;;-1.20
70819;BMP280;58439;51.046;13.692;2023-02-28T07:14:47;101454.16;;;-0.92
70819;BMP280;58439;51.046;13.692;2023-02-28T07:17:15;101453.69;;;-0.66
70819;BMP280;58439;51.046;13.692;2023-02-28T07:19:42;101450.16;;;-0.47
70819;BMP280;58439;51.046;13.692;2023-02-28T07:22:09;101457.84;;;-0.30
70819;BMP280;58439;51.046;13.692;2023-02-28T07:24:37;101455.56;;;-0.19
70819;BMP280;58439;51.046;13.692;2023-02-28T07:27:07;101458.13;;;-0.03
70819;BMP280;58439;51.046;13.692;2023-02-28T07:29:35;101452.31;;;0.25
70819;BMP280;58439;51.046;13.692;2023-02-28T07:32:02;101453.81;;;0.59
70819;BMP280;58439;51.046;13.692;2023-02-28T07:34:29;101454.94;;;0.69
70819;BMP280;58439;51.046;13.692;2023-02-28T07:36:56;101456.16;;;0.64
70819;BMP280;58439;51.046;13.692;2023-02-28T07:39:23;101455.16;;;0.50
70819;BMP280;58439;51.046;13.692;2023-02-28T07:41:50;101465.03;;;0.42
70819;BMP280;58439;51.046;13.692;2023-02-28T07:44:19;101460.47;;;0.47
70819;BMP280;58439;51.046;13.692;2023-02-28T07:46:47;101458.13;;;0.59
70819;BMP280;58439;51.046;13.692;2023-02-28T07:49:15;101463.44;;;0.71
70819;BMP280;58439;51.046;13.692;2023-02-28T07:51:42;101460.97;;;0.84
70819;BMP280;58439;51.046;13.692;2023-02-28T07:54:10;101456.81;;;0.82
70819;BMP280;58439;51.046;13.692;2023-02-28T07:56:37;101461.91;;;0.83
70819;BMP280;58439;51.046;13.692;2023-02-28T07:59:04;101465.75;;;0.90
70819;BMP280;58439;51.046;13.692;2023-02-28T08:01:32;101466.03;;;1.16
70819;BMP280;58439;51.046;13.692;2023-02-28T08:03:59;101461.13;;;1.40
70819;BMP280;58439;51.046;13.692;2023-02-28T08:06:27;101465.63;;;1.65
70819;BMP280;58439;51.046;13.692;2023-02-28T08:08:54;101463.53;;;1.71
70819;BMP280;58439;51.046;13.692;2023-02-28T08:11:23;101467.59;;;1.76
70819;BMP280;58439;51.046;13.692;2023-02-28T08:13:50;101466.94;;;1.72
70819;BMP280;58439;51.046;13.692;2023-02-28T08:16:17;101453.59;;;1.92
70819;BMP280;58439;51.046;13.692;2023-02-28T08:18:53;101457.97;;;2.19
70819;BMP280;58439;51.046;13.692;2023-02-28T08:21:21;101463.91;;;2.34
70819;BMP280;58439;51.046;13.692;2023-02-28T08:23:52;101454.81;;;2.28
70819;BMP280;58439;51.046;13.692;2023-02-28T08:26:20;101454.28;;;2.23
70819;BMP280;58439;51.046;13.692;2023-02-28T08:28:47;101461.19;;;2.22
70819;BMP280;58439;51.046;13.692;2023-02-28T08:31:16;101459.53;;;2.21
70819;BMP280;58439;51.046;13.692;2023-02-28T08:33:45;101464.59;;;2.23
70819;BMP280;58439;51.046;13.692;2023-02-28T08:36:12;101467.00;;;2.26
70819;BMP280;58439;51.046;13.692;2023-02-28T08:38:40;101462.88;;;2.36
70819;BMP280;58439;51.046;13.692;2023-02-28T08:41:10;101464.97;;;2.44
70819;BMP280;58439;51.046;13.692;2023-02-28T08:43:40;101465.34;;;2.78
70819;BMP280;58439;51.046;13.692;2023-02-28T08:46:11;101476.63;;;3.02
70819;BMP280;58439;51.046;13.692;2023-02-28T08:48:40;101472.09;;;3.06
70819;BMP280;58439;51.046;13.692;2023-02-28T08:51:18;101468.78;;;3.29
70819;BMP280;58439;51.046;13.692;2023-02-28T08:54:26;101469.59;;;3.42
70819;BMP280;58439;51.046;13.692;2023-02-28T08:57:12;101477.75;;;3.49
70819;BMP280;58439;51.046;13.692;2023-02-28T09:00:08;101478.13;;;3.68
70819;BMP280;58439;51.046;13.692;2023-02-28T09:02:35;101468.06;;;4.00
70819;BMP280;58439;51.046;13.692;2023-02-28T09:05:37;101470.19;;;4.30
70819;BMP280;58439;51.046;13.692;2023-02-28T09:08:04;101466.94;;;4.40
70819;BMP280;58439;51.046;13.692;2023-02-28T09:10:31;101462.44;;;4.30
70819;BMP280;58439;51.046;13.692;2023-02-28T09:12:59;101459.72;;;4.56
70819;BMP280;58439;51.046;13.692;2023-02-28T09:15:26;101463.50;;;4.74
70819;BMP280;58439;51.046;13.692;2023-02-28T09:17:53;101472.03;;;4.99
70819;BMP280;58439;51.046;13.692;2023-02-28T09:20:20;101464.47;;;4.96
70819;BMP280;58439;51.046;13.692;2023-02-28T09:22:48;101467.59;;;4.66
70819;BMP280;58439;51.046;13.692;2023-02-28T09:25:15;101465.13;;;4.64
70819;BMP280;58439;51.046;13.692;2023-02-28T09:27:42;101468.81;;;4.84
70819;BMP280;58439;51.046;13.692;2023-02-28T09:30:27;101467.38;;;4.80
70819;BMP280;58439;51.046;13.692;2023-02-28T09:33:02;101456.13;;;4.46
70819;BMP280;58439;51.046;13.692;2023-02-28T09:35:35;101457.78;;;4.23
70819;BMP280;58439;51.046;13.692;2023-02-28T09:38:06;101453.03;;;4.06
70819;BMP280;58439;51.046;13.692;2023-02-28T09:41:08;101449.22;;;3.74
70819;BMP280;58439;51.046;13.692;2023-02-28T09:43:41;101453.75;;;3.47
70819;BMP280;58439;51.046;13.692;2023-02-28T09:46:34;101450.25;;;3.35
70819;BMP280;58439;51.046;13.692;2023-02-28T09:49:24;101448.69;;;3.45
70819;BMP280;58439;51.046;13.692;2023-02-28T09:52:04;101448.94;;;3.66
70819;BMP280;58439;51.046;13.692;2023-02-28T09:54:46;101449.41;;;3.84
70819;BMP280;58439;51.046;13.692;2023-02-28T09:57:28;101449.78;;;4.15
70819;BMP280;58439;51.046;13.692;2023-02-28T10:00:22;101454.47;;;4.45
70819;BMP280;58439;51.046;13.692;2023-02-28T10:03:36;101461.72;;;4.64
70819;BMP280;58439;51.046;13.692;2023-02-28T10:06:19;101460.66;;;4.77
70819;BMP280;58439;51.046;13.692;2023-02-28T10:09:30;101463.63;;;4.95
70819;BMP280;58439;51.046;13.692;2023-02-28T10:17:04;101445.50;;;4.95
70819;BMP280;58439;51.046;13.692;2023-02-28T10:20:20;101450.53;;;4.74
70819;BMP280;58439;51.046;13.692;2023-02-28T10:26:47;101458.38;;;4.50
70819;BMP280;58439;51.046;13.692;2023-02-28T10:29:15;101448.13;;;4.49
70819;BMP280;58439;51.046;13.692;2023-02-28T10:31:42;101453.94;;;4.64
70819;BMP280;58439;51.046;13.692;2023-02-28T10:34:12;101457.97;;;4.79
70819;BMP280;58439;51.046;13.692;2023-02-28T10:36:42;101456.28;;;4.67
70819;BMP280;58439;51.046;13.692;2023-02-28T10:39:38;101454.00;;;4.75
70819;BMP280;58439;51.046;13.692;2023-02-28T10:42:27;101456.06;;;5.48
70819;BMP280;58439;51.046;13.692;2023-02-28T10:45:14;101461.03;;;5.95
70819;BMP280;58439;51.046;13.692;2023-02-28T10:56:04;101445.78;;;6.95
70819;BMP280;58439;51.046;13.692;2023-02-28T10:58:56;101436.59;;;7.00
70819;BMP280;58439;51.046;13.692;2023-02-28T11:01:44;101447.88;;;6.49
70819;BMP280;58439;51.046;13.692;2023-02-28T11:04:31;101438.47;;;5.95
70819;BMP280;58439;51.046;13.692;2023-02-28T11:07:05;101437.03;;;5.70
70819;BMP280;58439;51.046;13.692;2023-02-28T11:09:36;101434.22;;;6.05
70819;BMP280;58439;51.046;13.692;2023-02-28T11:12:28;101428.84;;;6.70
70819;BMP280;58439;51.046;13.692;2023-02-28T11:15:24;101425.91;;;6.63
70819;BMP280;58439;51.046;13.692;2023-02-28T11:20:59;101426.56;;;7.26
70819;BMP280;58439;51.046;13.692;2023-02-28T11:23:31;101423.19;;;8.50
70819;BMP280;58439;51.046;13.692;2023-02-28T11:26:04;101419.53;;;10.05
70819;BMP280;58439;51.046;13.692;2023-02-28T11:28:38;101413.19;;;12.06
70819;BMP280;58439;51.046;13.692;2023-02-28T11:33:54;101416.88;;;13.58
70819;BMP280;58439;51.046;13.692;2023-02-28T11:36:30;101423.34;;;13.48
70819;BMP280;58439;51.046;13.692;2023-02-28T11:39:10;101414.56;;;11.53
70819;BMP280;58439;51.046;13.692;2023-02-28T11:42:07;101411.44;;;9.36
70819;BMP280;58439;51.046;13.692;2023-02-28T11:48:03;101413.94;;;8.65
70819;BMP280;58439;51.046;13.692;2023-02-28T11:51:11;101405.44;;;8.36
70819;BMP280;58439;51.046;13.692;2023-02-28T11:56:44;101399.06;;;12.54
70819;BMP280;58439;51.046;13.692;2023-02-28T11:59:48;101398.22;;;13.68
70819;BMP280;58439;51.046;13.692;2023-02-28T12:02:49;101398.00;;;14.14
70819;BMP280;58439;51.046;13.692;2023-02-28T12:05:29;101396.78;;;14.89
70819;BMP280;58439;51.046;13.692;2023-02-28T12:23:17;101393.72;;;14.85
70819;BMP280;58439;51.046;13.692;2023-02-28T12:26:24;101384.22;;;16.22
70819;BMP280;58439;51.046;13.692;2023-02-28T12:29:14;101389.38;;;15.83
70819;BMP280;58439;51.046;13.692;2023-02-28T12:32:12;101388.56;;;16.37
70819;BMP280;58439;51.046;13.692;2023-02-28T12:37:45;101396.56;;;15.68
70819;BMP280;58439;51.046;13.692;2023-02-28T12:40:23;101394.75;;;15.61
70819;BMP280;58439;51.046;13.692;2023-02-28T12:43:02;101382.72;;;16.00
70819;BMP280;58439;51.046;13.692;2023-02-28T12:46:21;101389.50;;;16.16
70819;BMP280;58439;51.046;13.692;2023-02-28T12:49:25;101387.56;;;16.71
70819;BMP280;58439;51.046;13.692;2023-02-28T12:51:55;101385.09;;;17.22
70819;BMP280;58439;51.046;13.692;2023-02-28T12:54:56;101381.91;;;16.94
70819;BMP280;58439;51.046;13.692;2023-02-28T12:57:58;101388.75;;;17.34
70819;BMP280;58439;51.046;13.692;2023-02-28T13:00:38;101380.88;;;16.95
70819;BMP280;58439;51.046;13.692;2023-02-28T13:07:17;101380.03;;;15.52
70819;BMP280;58439;51.046;13.692;2023-02-28T13:09:57;101377.84;;;15.56
70819;BMP280;58439;51.046;13.692;2023-02-28T13:12:30;101376.09;;;15.70
70819;BMP280;58439;51.046;13.692;2023-02-28T13:15:24;101377.94;;;15.76
70819;BMP280;58439;51.046;13.692;2023-02-28T13:18:43;101377.94;;;14.64
70819;BMP280;58439;51.046;13.692;2023-02-28T13:21:27;101372.06;;;11.98
70819;BMP280;58439;51.046;13.692;2023-02-28T13:24:04;101372.13;;;12.21
70819;BMP280;58439;51.046;13.692;2023-02-28T13:29:35;101374.09;;;14.30
70819;BMP280;58439;51.046;13.692;2023-02-28T13:32:45;101377.44;;;14.75
70819;BMP280;58439;51.046;13.692;2023-02-28T13:35:43;101372.72;;;14.70
70819;BMP280;58439;51.046;13.692;2023-02-28T13:39:00;101374.47;;;14.85
70819;BMP280;58439;51.046;13.692;2023-02-28T14:07:52;101351.06;;;14.54
70819;BMP280;58439;51.046;13.692;2023-02-28T14:10:52;101344.28;;;14.23
70819;BMP280;58439;51.046;13.692;2023-02-28T14:17:13;101344.94;;;14.68
70819;BMP280;58439;51.046;13.692;2023-02-28T14:19:46;101338.47;;;14.92
70819;BMP280;58439;51.046;13.692;2023-02-28T14:23:36;101338.84;;;14.67
70819;BMP280;58439;51.046;13.692;2023-02-28T14:38:25;101331.00;;;14.31
70819;BMP280;58439;51.046;13.692;2023-02-28T14:41:00;101328.84;;;14.20
70819;BMP280;58439;51.046;13.692;2023-02-28T14:44:32;101322.41;;;14.65
70819;BMP280;58439;51.046;13.692;2023-02-28T14:47:03;101323.34;;;14.36
70819;BMP280;58439;51.046;13.692;2023-02-28T14:49:44;101317.59;;;13.60
70819;BMP280;58439;51.046;13.692;2023-02-28T14:52:21;101321.56;;;12.35
70819;BMP280;58439;51.046;13.692;2023-02-28T14:54:55;101327.22;;;12.24
70819;BMP280;58439;51.046;13.692;2023-02-28T14:57:32;101334.31;;;12.15
70819;BMP280;58439;51.046;13.692;2023-02-28T15:02:44;101318.28;;;11.39
70819;BMP280;58439;51.046;13.692;2023-02-28T15:05:34;101326.97;;;11.23
70819;BMP280;58439;51.046;13.692;2023-02-28T15:08:14;101323.50;;;10.73
70819;BMP280;58439;51.046;13.692;2023-02-28T15:10:51;101316.41;;;9.73
70819;BMP280;58439;51.046;13.692;2023-02-28T15:13:52;101331.13;;;8.12
70819;BMP280;58439;51.046;13.692;2023-02-28T15:16:28;101327.28;;;7.40
70819;BMP280;58439;51.046;13.692;2023-02-28T15:19:07;101327.66;;;6.97
70819;BMP280;58439;51.046;13.692;2023-02-28T15:21:48;101326.47;;;6.71
70819;BMP280;58439;51.046;13.692;2023-02-28T15:24:36;101322.25;;;6.39
70819;BMP280;58439;51.046;13.692;2023-02-28T15:27:12;101325.66;;;6.09
70819;BMP280;58439;51.046;13.692;2023-02-28T15:35:39;101314.56;;;5.65
70819;BMP280;58439;51.046;13.692;2023-02-28T15:38:25;101322.72;;;5.40
70819;BMP280;58439;51.046;13.692;2023-02-28T15:40:57;101326.44;;;5.15
70819;BMP280;58439;51.046;13.692;2023-02-28T15:43:32;101324.13;;;4.89
70819;BMP280;58439;51.046;13.692;2023-02-28T15:46:12;101320.59;;;4.79
70819;BMP280;58439;51.046;13.692;2023-02-28T15:48:55;101319.78;;;4.67
70819;BMP280;58439;51.046;13.692;2023-02-28T15:51:36;101327.19;;;4.61
70819;BMP280;58439;51.046;13.692;2023-02-28T15:54:08;101324.38;;;4.52
70819;BMP280;58439;51.046;13.692;2023-02-28T15:56:44;101326.94;;;4.41
70819;BMP280;58439;51.046;13.692;2023-02-28T15:59:25;101330.47;;;4.40
70819;BMP280;58439;51.046;13.692;2023-02-28T16:02:35;101326.50;;;4.36
70819;BMP280;58439;51.046;13.692;2023-02-28T16:07:44;101319.16;;;4.30
70819;BMP280;58439;51.046;13.692;2023-02-28T16:10:15;101320.31;;;4.26
70819;BMP280;58439;51.046;13.692;2023-02-28T16:12:46;101324.31;;;4.19
70819;BMP280;58439;51.046;13.692;2023-02-28T16:15:28;101322.81;;;4.16
70819;BMP280;58439;51.046;13.692;2023-02-28T16:18:03;101323.38;;;4.09
70819;BMP280;58439;51.046;13.692;2023-02-28T16:20:31;101323.81;;;4.02
70819;BMP280;58439;51.046;13.692;2023-02-28T16:23:02;101326.88;;;3.96
70819;BMP280;58439;51.046;13.692;2023-02-28T16:25:43;101326.28;;;3.93
70819;BMP280;58439;51.046;13.692;2023-02-28T16:28:43;101317.41;;;3.84
70819;BMP280;58439;51.046;13.692;2023-02-28T16:31:12;101319.97;;;3.73
70819;BMP280;58439;51.046;13.692;2023-02-28T16:33:44;101323.19;;;3.64
70819;BMP280;58439;51.046;13.692;2023-02-28T16:36:22;101324.69;;;3.55
70819;BMP280;58439;51.046;13.692;2023-02-28T16:38:53;101325.56;;;3.43
70819;BMP280;58439;51.046;13.692;2023-02-28T16:41:26;101315.88;;;3.34
70819;BMP280;58439;51.046;13.692;2023-02-28T16:43:57;101322.53;;;3.25
70819;BMP280;58439;51.046;13.692;2023-02-28T16:46:33;101323.19;;;3.16
70819;BMP280;58439;51.046;13.692;2023-02-28T16:49:01;101324.25;;;3.13
70819;BMP280;58439;51.046;13.692;2023-02-28T16:51:29;101317.00;;;3.06
70819;BMP280;58439;51.046;13.692;2023-02-28T16:54:01;101316.38;;;3.02
70819;BMP280;58439;51.046;13.692;2023-02-28T16:56:42;101313.19;;;2.98
70819;BMP280;58439;51.046;13.692;2023-02-28T16:59:33;101322.44;;;2.90
70819;BMP280;58439;51.046;13.692;2023-02-28T17:02:01;101328.13;;;2.82
70819;BMP280;58439;51.046;13.692;2023-02-28T17:04:29;101326.97;;;2.73
70819;BMP280;58439;51.046;13.692;2023-02-28T17:06:57;101330.72;;;2.69
70819;BMP280;58439;51.046;13.692;2023-02-28T17:09:24;101327.19;;;2.70
70819;BMP280;58439;51.046;13.692;2023-02-28T17:12:08;101330.59;;;2.71
70819;BMP280;58439;51.046;13.692;2023-02-28T17:14:36;101333.16;;;2.71